Terminal Aerodrome Forecast
Issued by NWS Green Bay, WI

Home | Current Version | Previous Version | Graphics & Text | Print | Product List | Glossary On
Versions: 1 2 3 4 5 6 7 8 9 10 11 12 13 14 15 16 17 18
641
FTUS43 KGRB 191720
TAFGRB
TAF
KGRB 191720Z 1918/2018 32013G18KT P6SM BKN040
     FM192000 34011G15KT P6SM BKN050
     FM192300 31008KT P6SM SCT050
     FM200300 01003KT P6SM SCT250
     FM201500 24005KT P6SM BKN200=

USA.gov is the U.S. government's official web portal to all federal, state and local government web resources and services.